Time;durP1;ratioP1;P1;durP2;ratioP2;P2;SDS_P1;SDS_P2;PMS_P1;PMS_P2;Temp;Humidity;BMP_temperature;BMP_pressure;BME280_temperature;BME280_humidity;BME280_pressure;Samples;Min_cycle;Max_cycle;Signal;HPM_P1;HPM_P2
2023/11/18 00:02:26;;;;;;;;;;;;;;;6.38;66.39;98725.78;5011330;28;19925;-74
2023/11/18 00:05:15;;;;;;;;;;;;;;;6.36;66.23;98736.06;5010596;28;19933;-74
2023/11/18 00:08:04;;;;;;;;;;;;;;;6.36;66.44;98742.25;5009082;28;19934;-73
2023/11/18 00:10:52;;;;;;;;;;;;;;;6.43;66.25;98744.72;5009510;28;20298;-75
2023/11/18 00:13:42;;;;;;;;;;;;;;;6.46;66.15;98739.59;5007503;28;20060;-73
2023/11/18 00:16:31;;;;;;;;;;;;;;;6.43;66.12;98742.00;5009650;28;19933;-75
2023/11/18 00:19:19;;;;;;;;;;;;;;;6.49;66.40;98747.16;5010074;28;19952;-74
2023/11/18 00:22:07;;;;;;;;;;;;;;;6.49;66.20;98754.44;5009525;28;20056;-74
2023/11/18 00:24:56;;;;;;;;;;;;;;;6.61;66.17;98751.53;5008252;28;19937;-74
2023/11/18 00:27:44;;;;;;;;;;;;;;;6.27;67.09;98747.34;5006493;28;19965;-74
2023/11/18 00:30:32;;;;;;;;;;;;;;;5.93;68.44;98746.06;5004511;28;19934;-74
2023/11/18 00:33:22;;;;;;;;;;;;;;;5.81;69.07;98751.66;5001639;28;19961;-74
2023/11/18 00:36:11;;;;;;;;;;;;;;;6.04;67.94;98747.75;5010306;28;20035;-74
2023/11/18 00:39:00;;;;;;;;;;;;;;;6.23;67.42;98745.41;5006374;28;19972;-74
2023/11/18 00:41:48;;;;;;;;;;;;;;;6.29;67.25;98749.78;5007694;28;19945;-74
2023/11/18 00:44:36;;;;;;;;;;;;;;;6.21;66.96;98748.38;4992640;28;20427;-74
2023/11/18 00:47:25;;;;;;;;;;;;;;;6.42;66.81;98748.50;5006538;28;20404;-74
2023/11/18 00:50:14;;;;;;;;;;;;;;;6.35;66.51;98745.22;5009371;28;19929;-74
2023/11/18 00:53:02;;;;;;;;;;;;;;;6.04;67.54;98750.47;4999273;28;19964;-74
2023/11/18 00:55:51;;;;;;;;;;;;;;;5.79;68.85;98751.88;5007811;28;20726;-74
2023/11/18 00:58:40;;;;;;;;;;;;;;;5.61;69.06;98743.41;5005988;28;19968;-74
2023/11/18 01:01:28;;;;;;;;;;;;;;;6.00;68.33;98747.47;5006215;28;19934;-74
2023/11/18 01:04:16;;;;;;;;;;;;;;;5.53;70.10;98747.38;4999404;28;19930;-73
2023/11/18 01:07:06;;;;;;;;;;;;;;;5.95;69.37;98743.91;5006966;28;19925;-74
2023/11/18 01:09:54;;;;;;;;;;;;;;;5.92;68.92;98747.97;5006650;28;19933;-74
2023/11/18 01:12:44;;;;;;;;;;;;;;;5.90;69.36;98741.16;5002420;28;19932;-74
2023/11/18 01:15:33;;;;;;;;;;;;;;;5.97;69.09;98748.00;4989813;28;19929;-74
2023/11/18 01:18:21;;;;;;;;;;;;;;;6.02;68.54;98745.34;5006337;28;19925;-74
2023/11/18 01:21:10;;;;;;;;;;;;;;;5.75;69.14;98755.34;5004531;28;20376;-74
2023/11/18 01:23:59;;;;;;;;;;;;;;;5.68;69.50;98754.78;5007571;28;19933;-74
2023/11/18 01:26:48;;;;;;;;;;;;;;;5.67;69.13;98762.03;5009383;28;19964;-74
2023/11/18 01:29:36;;;;;;;;;;;;;;;5.98;68.62;98770.38;5009139;28;19930;-74
2023/11/18 01:32:25;;;;;;;;;;;;;;;5.74;69.37;98767.22;5010719;28;19932;-74
2023/11/18 01:35:13;;;;;;;;;;;;;;;5.93;68.86;98764.97;5011809;28;19930;-74
2023/11/18 01:38:01;;;;;;;;;;;;;;;5.89;68.66;98766.50;5009030;28;19925;-74
2023/11/18 01:40:51;;;;;;;;;;;;;;;6.06;68.04;98769.88;5010203;28;19933;-74
2023/11/18 01:43:39;;;;;;;;;;;;;;;5.96;68.22;98776.03;4998381;28;20276;-75
2023/11/18 01:46:29;;;;;;;;;;;;;;;5.68;68.71;98777.16;5010302;28;19940;-74
2023/11/18 01:49:20;;;;;;;;;;;;;;;5.77;68.43;98775.59;5009811;28;19929;-74
2023/11/18 01:52:08;;;;;;;;;;;;;;;5.37;68.77;98770.69;5006897;28;19925;-74
2023/11/18 01:54:56;;;;;;;;;;;;;;;5.48;68.43;98779.69;5009133;28;19925;-74
2023/11/18 01:57:45;;;;;;;;;;;;;;;4.99;70.13;98774.38;5009473;28;19929;-74
2023/11/18 02:00:34;;;;;;;;;;;;;;;5.30;68.71;98780.06;4997868;28;19930;-74
2023/11/18 02:03:22;;;;;;;;;;;;;;;5.45;68.42;98772.94;5006326;28;19925;-74
2023/11/18 02:06:14;;;;;;;;;;;;;;;5.22;68.40;98771.38;4996933;28;19934;-74
2023/11/18 02:09:04;;;;;;;;;;;;;;;5.46;67.70;98774.56;4997677;28;19937;-74
2023/11/18 02:11:54;;;;;;;;;;;;;;;5.49;67.27;98779.44;5006449;28;20016;-74
2023/11/18 02:14:43;;;;;;;;;;;;;;;4.85;68.67;98778.56;4990805;28;19926;-74
2023/11/18 02:17:31;;;;;;;;;;;;;;;4.87;69.20;98779.09;5004459;28;19925;-74
2023/11/18 02:20:21;;;;;;;;;;;;;;;5.12;68.83;98783.94;5010725;28;19936;-74
2023/11/18 02:23:09;;;;;;;;;;;;;;;5.17;67.59;98781.31;5007628;28;19972;-73
2023/11/18 02:26:01;;;;;;;;;;;;;;;5.07;68.16;98782.00;5005869;28;19937;-74
2023/11/18 02:28:49;;;;;;;;;;;;;;;5.26;67.83;98780.56;5009496;28;19929;-74
2023/11/18 02:31:38;;;;;;;;;;;;;;;4.88;68.74;98783.41;4993391;28;19936;-74
2023/11/18 02:34:28;;;;;;;;;;;;;;;4.68;69.42;98790.19;4995249;28;20307;-73
2023/11/18 02:37:17;;;;;;;;;;;;;;;4.77;69.07;98781.69;4995187;28;19976;-74
2023/11/18 02:40:10;;;;;;;;;;;;;;;5.03;68.65;98783.56;4986812;28;20299;-74
2023/11/18 02:42:59;;;;;;;;;;;;;;;4.75;69.48;98775.75;4977278;28;19925;-74
2023/11/18 02:45:48;;;;;;;;;;;;;;;4.28;69.64;98782.44;4973414;28;20399;-74
2023/11/18 02:48:36;;;;;;;;;;;;;;;4.09;71.26;98778.41;4985590;28;20407;-74
2023/11/18 02:51:25;;;;;;;;;;;;;;;4.48;69.08;98784.56;4988550;28;19936;-74
2023/11/18 02:54:16;;;;;;;;;;;;;;;4.54;68.80;98794.34;4985722;28;19929;-75
2023/11/18 02:57:04;;;;;;;;;;;;;;;4.67;67.62;98790.44;4989535;28;19930;-74
2023/11/18 02:59:54;;;;;;;;;;;;;;;4.75;67.34;98794.59;4989858;28;19926;-74
2023/11/18 03:02:42;;;;;;;;;;;;;;;4.60;67.67;98798.72;4987587;28;20493;-73
2023/11/18 03:05:32;;;;;;;;;;;;;;;4.25;67.68;98790.97;4987979;28;19961;-74
2023/11/18 03:08:21;;;;;;;;;;;;;;;4.17;68.68;98794.94;4990432;28;19929;-74
2023/11/18 03:11:09;;;;;;;;;;;;;;;4.15;68.99;98794.34;4994575;28;19933;-77
2023/11/18 03:13:57;;;;;;;;;;;;;;;4.02;69.29;98802.78;4981023;28;20033;-74
2023/11/18 03:16:48;;;;;;;;;;;;;;;4.07;68.68;98794.78;4992535;28;19933;-74
2023/11/18 03:19:36;;;;;;;;;;;;;;;4.33;67.67;98798.63;4993178;28;19936;-74
2023/11/18 03:22:24;;;;;;;;;;;;;;;4.39;67.82;98803.03;4985222;28;20351;-74
2023/11/18 03:25:14;;;;;;;;;;;;;;;4.36;67.22;98802.69;4985736;28;19926;-74
2023/11/18 03:28:02;;;;;;;;;;;;;;;4.29;67.68;98802.06;4990637;28;20028;-74
2023/11/18 03:30:50;;;;;;;;;;;;;;;4.09;68.29;98806.09;4987383;28;20027;-74
2023/11/18 03:33:39;;;;;;;;;;;;;;;3.63;69.10;98810.78;4986293;28;19962;-74
2023/11/18 03:36:27;;;;;;;;;;;;;;;3.99;68.51;98805.94;4985085;28;19989;-75
2023/11/18 03:39:15;;;;;;;;;;;;;;;4.19;68.36;98806.25;4997937;28;20298;-74
2023/11/18 03:42:03;;;;;;;;;;;;;;;3.65;70.35;98808.66;4990662;28;19932;-74
2023/11/18 03:44:51;;;;;;;;;;;;;;;4.04;68.74;98810.59;5006369;28;21714;-74
2023/11/18 03:47:39;;;;;;;;;;;;;;;4.18;68.67;98810.00;5005861;28;19929;-74
2023/11/18 03:50:29;;;;;;;;;;;;;;;3.37;71.07;98816.78;4993298;28;19934;-74
2023/11/18 03:53:17;;;;;;;;;;;;;;;3.17;72.26;98816.44;5005119;28;19934;-73
2023/11/18 03:56:05;;;;;;;;;;;;;;;3.60;71.08;98821.19;4995006;28;19953;-72
2023/11/18 03:58:53;;;;;;;;;;;;;;;3.79;70.45;98819.09;5005497;28;20386;-74
2023/11/18 04:01:41;;;;;;;;;;;;;;;3.94;69.15;98811.25;5004211;28;19936;-74
2023/11/18 04:04:30;;;;;;;;;;;;;;;4.09;68.63;98814.16;4994427;28;20012;-74
2023/11/18 04:07:19;;;;;;;;;;;;;;;3.50;69.89;98813.78;5008427;28;19929;-74
2023/11/18 04:10:10;;;;;;;;;;;;;;;3.23;71.11;98818.94;5011081;28;19925;-72
2023/11/18 04:12:58;;;;;;;;;;;;;;;3.39;71.32;98825.41;5010343;28;19947;-72
2023/11/18 04:15:46;;;;;;;;;;;;;;;2.93;72.53;98821.91;5010010;28;19933;-72
2023/11/18 04:18:35;;;;;;;;;;;;;;;3.50;71.26;98819.16;5005091;28;20057;-72
2023/11/18 04:21:23;;;;;;;;;;;;;;;3.49;70.58;98814.84;5007665;28;19968;-72
2023/11/18 04:24:13;;;;;;;;;;;;;;;3.73;69.95;98822.75;5010969;28;19933;-72
2023/11/18 04:27:01;;;;;;;;;;;;;;;3.77;69.14;98830.06;5003276;28;20001;-74
2023/11/18 04:29:50;;;;;;;;;;;;;;;3.69;69.19;98827.81;4992886;28;19929;-71
2023/11/18 04:32:39;;;;;;;;;;;;;;;3.83;68.07;98823.72;5009510;28;19964;-72
2023/11/18 04:35:27;;;;;;;;;;;;;;;3.98;67.56;98828.50;5010499;28;19949;-72
2023/11/18 04:38:15;;;;;;;;;;;;;;;3.31;69.77;98828.50;5006140;28;19952;-72
2023/11/18 04:41:06;;;;;;;;;;;;;;;3.18;70.86;98828.78;5008254;28;19925;-71
2023/11/18 04:43:55;;;;;;;;;;;;;;;3.56;69.49;98820.88;5003898;28;19925;-72
2023/11/18 04:46:44;;;;;;;;;;;;;;;3.70;68.57;98823.25;5003290;28;20406;-72
2023/11/18 04:49:32;;;;;;;;;;;;;;;3.82;68.18;98818.59;4993429;28;19932;-73
2023/11/18 04:52:20;;;;;;;;;;;;;;;4.00;67.45;98821.03;4992622;28;19976;-72
2023/11/18 04:55:09;;;;;;;;;;;;;;;3.89;67.40;98812.00;4992413;28;19929;-72
2023/11/18 04:57:58;;;;;;;;;;;;;;;3.96;66.85;98811.84;5005940;28;19936;-72
2023/11/18 05:00:48;;;;;;;;;;;;;;;3.81;67.72;98811.59;5005013;28;19925;-72
2023/11/18 05:03:36;;;;;;;;;;;;;;;3.58;68.12;98801.84;5002440;28;19929;-72
2023/11/18 05:06:24;;;;;;;;;;;;;;;3.43;68.34;98799.69;5005876;28;19929;-73
2023/11/18 05:09:12;;;;;;;;;;;;;;;3.56;68.42;98791.31;5004555;28;19939;-72
2023/11/18 05:12:00;;;;;;;;;;;;;;;3.76;68.30;98792.69;5003024;28;19925;-72
2023/11/18 05:14:50;;;;;;;;;;;;;;;3.50;68.22;98799.53;5001672;28;19944;-72
2023/11/18 05:17:38;;;;;;;;;;;;;;;3.80;68.19;98802.72;5004728;28;19961;-72
2023/11/18 05:20:27;;;;;;;;;;;;;;;3.97;67.24;98805.38;5004398;28;19979;-73
2023/11/18 05:23:15;;;;;;;;;;;;;;;3.97;66.89;98804.56;5003969;28;19930;-72
2023/11/18 05:26:05;;;;;;;;;;;;;;;3.93;66.79;98806.94;4993359;28;19926;-72
2023/11/18 05:28:54;;;;;;;;;;;;;;;4.15;65.79;98807.78;5001957;28;19926;-73
2023/11/18 05:31:45;;;;;;;;;;;;;;;3.66;67.07;98810.28;4993745;28;19929;-72
2023/11/18 05:34:35;;;;;;;;;;;;;;;3.81;66.54;98812.41;5007133;28;19932;-72
2023/11/18 05:37:23;;;;;;;;;;;;;;;4.13;65.94;98815.31;5005062;28;19952;-73
2023/11/18 05:40:15;;;;;;;;;;;;;;;4.19;65.33;98819.69;5003014;28;20003;-75
2023/11/18 05:43:06;;;;;;;;;;;;;;;3.94;66.45;98822.84;5009210;28;19948;-74
2023/11/18 05:46:14;;;;;;;;;;;;;;;4.01;66.11;98819.97;5003409;28;20291;-72
2023/11/18 05:49:07;;;;;;;;;;;;;;;4.10;66.03;98821.19;5005554;28;20307;-72
2023/11/18 05:51:56;;;;;;;;;;;;;;;4.04;66.42;98824.84;5008829;28;20005;-72
2023/11/18 05:54:44;;;;;;;;;;;;;;;4.06;65.83;98824.63;5006305;28;19926;-73
2023/11/18 05:57:32;;;;;;;;;;;;;;;3.39;68.12;98820.84;5003783;28;20092;-72
2023/11/18 06:00:21;;;;;;;;;;;;;;;3.72;67.32;98821.13;5006212;28;19925;-72
2023/11/18 06:03:15;;;;;;;;;;;;;;;3.43;68.26;98823.88;5008739;28;19955;-72
2023/11/18 06:06:06;;;;;;;;;;;;;;;3.70;67.06;98826.75;5004017;28;19940;-72
2023/11/18 06:08:54;;;;;;;;;;;;;;;3.91;66.42;98825.19;5011723;28;20060;-72
2023/11/18 06:11:44;;;;;;;;;;;;;;;3.90;66.47;98821.69;5009034;28;19935;-72
2023/11/18 06:14:32;;;;;;;;;;;;;;;3.61;67.38;98838.94;5005693;28;20110;-72
2023/11/18 06:17:20;;;;;;;;;;;;;;;3.81;67.30;98838.47;4996220;28;19932;-72
2023/11/18 06:20:10;;;;;;;;;;;;;;;3.76;67.65;98836.50;5011512;28;19934;-72
2023/11/18 06:23:00;;;;;;;;;;;;;;;3.93;67.28;98831.13;4996528;28;19925;-72
2023/11/18 06:25:50;;;;;;;;;;;;;;;3.97;67.24;98834.97;4995684;28;20216;-73
2023/11/18 06:28:39;;;;;;;;;;;;;;;3.93;67.20;98828.44;5006741;28;20671;-73
2023/11/18 06:31:27;;;;;;;;;;;;;;;3.99;67.52;98821.25;4992418;28;19937;-72
2023/11/18 06:34:15;;;;;;;;;;;;;;;4.11;66.58;98832.75;5009368;28;19926;-72
2023/11/18 06:37:03;;;;;;;;;;;;;;;4.25;66.74;98833.22;5006447;28;19933;-72
2023/11/18 06:39:53;;;;;;;;;;;;;;;4.43;66.31;98836.44;5011048;28;20410;-72
2023/11/18 06:42:42;;;;;;;;;;;;;;;4.23;66.73;98832.66;5010247;28;19933;-72
2023/11/18 06:45:31;;;;;;;;;;;;;;;4.36;66.62;98835.78;4988566;28;19925;-73
2023/11/18 06:48:20;;;;;;;;;;;;;;;3.44;68.34;98836.25;5006721;28;19925;-72
2023/11/18 06:51:11;;;;;;;;;;;;;;;3.86;67.47;98831.31;5009544;28;19960;-72
2023/11/18 06:53:59;;;;;;;;;;;;;;;4.00;66.92;98831.78;5008413;28;19995;-72
2023/11/18 06:56:51;;;;;;;;;;;;;;;3.21;68.35;98828.31;5009499;28;20017;-73
2023/11/18 06:59:39;;;;;;;;;;;;;;;3.15;69.13;98822.84;5007620;28;20080;-72
2023/11/18 07:02:27;;;;;;;;;;;;;;;3.33;69.02;98827.19;5007084;28;19933;-73
2023/11/18 07:05:15;;;;;;;;;;;;;;;3.18;69.67;98834.16;5005522;28;20028;-72
2023/11/18 07:08:03;;;;;;;;;;;;;;;2.82;69.84;98834.31;5007732;28;20063;-72
2023/11/18 07:10:51;;;;;;;;;;;;;;;2.74;70.83;98847.28;5006574;28;19987;-72
2023/11/18 07:13:41;;;;;;;;;;;;;;;2.96;70.04;98842.88;5006498;28;19933;-72
2023/11/18 07:16:29;;;;;;;;;;;;;;;3.09;70.26;98847.97;5008371;28;19971;-72
2023/11/18 07:19:19;;;;;;;;;;;;;;;3.07;70.04;98855.44;5003655;28;19933;-73
2023/11/18 07:22:09;;;;;;;;;;;;;;;3.25;69.68;98861.66;5001047;28;19933;-72
2023/11/18 07:24:57;;;;;;;;;;;;;;;3.58;69.21;98863.63;5007253;28;20035;-72
2023/11/18 07:27:47;;;;;;;;;;;;;;;3.41;69.26;98860.91;4994306;28;19936;-72
2023/11/18 07:30:41;;;;;;;;;;;;;;;3.65;68.91;98861.59;5003010;28;19940;-72
2023/11/18 07:33:32;;;;;;;;;;;;;;;3.15;71.07;98867.69;5005318;28;21368;-72
2023/11/18 07:36:20;;;;;;;;;;;;;;;3.31;71.15;98877.66;5005336;28;19933;-72
2023/11/18 07:39:15;;;;;;;;;;;;;;;3.51;70.84;98871.81;5007855;28;19929;-73
2023/11/18 07:42:05;;;;;;;;;;;;;;;3.50;71.03;98872.06;5004008;28;19929;-72
2023/11/18 07:44:53;;;;;;;;;;;;;;;3.63;70.92;98883.34;4996696;28;20075;-73
2023/11/18 07:47:44;;;;;;;;;;;;;;;3.63;70.55;98880.66;5009986;28;19930;-73
2023/11/18 07:50:33;;;;;;;;;;;;;;;3.79;70.05;98880.91;5009993;28;19925;-74
2023/11/18 07:53:21;;;;;;;;;;;;;;;3.73;70.43;98869.28;5009427;28;19933;-73
2023/11/18 07:56:12;;;;;;;;;;;;;;;3.60;71.60;98881.13;5007872;28;20395;-73
2023/11/18 07:59:01;;;;;;;;;;;;;;;3.86;70.64;98878.88;5010494;28;20399;-73
2023/11/18 08:01:49;;;;;;;;;;;;;;;4.04;70.41;98881.31;5005628;28;19929;-73
2023/11/18 08:04:39;;;;;;;;;;;;;;;4.15;70.41;98866.94;5000840;28;19944;-73
2023/11/18 08:07:28;;;;;;;;;;;;;;;4.04;70.31;98881.31;5008248;28;20990;-73
2023/11/18 08:10:18;;;;;;;;;;;;;;;3.65;71.83;98881.22;5008999;28;20004;-73
2023/11/18 08:13:07;;;;;;;;;;;;;;;3.23;74.28;98891.47;5008928;28;19929;-73
2023/11/18 08:15:57;;;;;;;;;;;;;;;3.53;73.62;98891.22;5009370;28;19926;-73
2023/11/18 08:18:46;;;;;;;;;;;;;;;3.90;72.32;98901.53;5007568;28;19932;-73
2023/11/18 08:21:35;;;;;;;;;;;;;;;4.07;72.32;98907.72;5006243;28;20395;-73
2023/11/18 08:24:23;;;;;;;;;;;;;;;4.23;71.42;98908.78;4992145;28;20026;-73
2023/11/18 08:27:11;;;;;;;;;;;;;;;3.89;72.59;98883.78;4994422;28;20378;-73
2023/11/18 08:29:59;;;;;;;;;;;;;;;4.17;72.02;98880.19;4996319;28;20060;-73
2023/11/18 08:32:48;;;;;;;;;;;;;;;3.93;72.97;98876.84;4992970;28;20423;-73
2023/11/18 08:35:37;;;;;;;;;;;;;;;4.38;71.58;98882.09;4995481;28;19948;-74
2023/11/18 08:38:27;;;;;;;;;;;;;;;4.52;71.34;98879.88;5004891;28;19933;-73
2023/11/18 08:41:15;;;;;;;;;;;;;;;4.62;71.88;98887.28;5010626;28;19925;-74
2023/11/18 08:44:04;;;;;;;;;;;;;;;4.57;71.01;98884.50;5005925;28;19933;-74
2023/11/18 08:47:08;;;;;;;;;;;;;;;4.62;71.40;98887.28;5004910;28;19930;-74
2023/11/18 08:49:57;;;;;;;;;;;;;;;4.81;70.58;98890.50;5006579;28;19925;-73
2023/11/18 08:52:48;;;;;;;;;;;;;;;4.82;70.68;98892.94;4994608;28;19932;-73
2023/11/18 08:55:41;;;;;;;;;;;;;;;5.02;69.94;98886.19;4992535;28;19929;-73
2023/11/18 08:58:34;;;;;;;;;;;;;;;4.64;72.00;98885.97;4994168;28;19929;-73
2023/11/18 09:01:23;;;;;;;;;;;;;;;4.85;71.73;98884.38;4993426;28;19929;-73
2023/11/18 09:04:11;;;;;;;;;;;;;;;4.89;71.46;98892.75;5002440;28;20345;-72
2023/11/18 09:07:00;;;;;;;;;;;;;;;5.19;70.59;98893.13;5005802;28;19930;-74
2023/11/18 09:09:49;;;;;;;;;;;;;;;5.31;69.84;98884.88;4997481;28;20046;-74
2023/11/18 09:12:45;;;;;;;;;;;;;;;5.33;70.23;98880.06;5008242;28;20403;-75
2023/11/18 09:15:36;;;;;;;;;;;;;;;5.15;70.75;98888.47;5012044;28;20415;-73
2023/11/18 09:18:25;;;;;;;;;;;;;;;5.17;71.07;98884.47;5010058;28;19925;-74
2023/11/18 09:21:15;;;;;;;;;;;;;;;5.34;70.65;98879.00;5006177;28;19949;-74
2023/11/18 09:24:12;;;;;;;;;;;;;;;4.91;72.40;98896.00;5011518;28;19940;-73
2023/11/18 09:27:00;;;;;;;;;;;;;;;5.47;71.01;98888.56;5001264;28;19937;-73
2023/11/18 09:29:49;;;;;;;;;;;;;;;5.72;70.35;98883.41;4994046;28;19960;-73
2023/11/18 09:32:39;;;;;;;;;;;;;;;5.62;70.24;98877.94;4999216;28;20335;-73
2023/11/18 09:35:27;;;;;;;;;;;;;;;5.63;70.57;98871.47;4997589;28;19925;-73
2023/11/18 09:38:16;;;;;;;;;;;;;;;5.54;71.22;98875.72;4990150;28;19932;-74
2023/11/18 09:41:07;;;;;;;;;;;;;;;5.46;71.12;98874.28;4990248;28;19937;-74
2023/11/18 09:43:56;;;;;;;;;;;;;;;5.57;71.34;98868.97;5010350;28;19929;-74
2023/11/18 09:46:46;;;;;;;;;;;;;;;5.63;71.22;98871.47;5009709;28;20383;-74
2023/11/18 09:49:38;;;;;;;;;;;;;;;5.57;71.46;98872.47;5012252;28;19925;-74
2023/11/18 09:52:26;;;;;;;;;;;;;;;5.83;70.71;98876.22;4998786;28;19930;-74
2023/11/18 09:55:19;;;;;;;;;;;;;;;5.98;70.16;98875.59;5012714;28;19925;-73
2023/11/18 09:58:13;;;;;;;;;;;;;;;6.11;70.33;98871.63;5011867;28;19929;-74
2023/11/18 10:01:02;;;;;;;;;;;;;;;6.00;71.53;98868.84;5006188;28;20069;-74
2023/11/18 10:03:52;;;;;;;;;;;;;;;6.14;71.13;98877.31;5010875;28;20410;-74
2023/11/18 10:06:40;;;;;;;;;;;;;;;6.41;70.36;98861.03;5010371;28;20395;-74
2023/11/18 10:09:29;;;;;;;;;;;;;;;6.16;71.48;98868.97;5010841;28;19926;-74
2023/11/18 10:12:23;;;;;;;;;;;;;;;5.89;72.54;98860.91;5011136;28;19930;-75
2023/11/18 10:15:12;;;;;;;;;;;;;;;5.86;72.86;98858.72;5013065;28;19931;-74
2023/11/18 10:18:06;;;;;;;;;;;;;;;6.13;72.42;98853.31;5011668;28;19933;-74
2023/11/18 10:21:00;;;;;;;;;;;;;;;6.41;71.61;98852.13;5006503;28;19925;-74
2023/11/18 10:24:02;;;;;;;;;;;;;;;6.20;72.22;98854.69;5011431;28;19934;-74
2023/11/18 10:26:56;;;;;;;;;;;;;;;6.26;72.59;98859.06;4999527;28;20084;-74
2023/11/18 10:29:44;;;;;;;;;;;;;;;6.35;71.96;98851.28;5006524;28;20303;-74
2023/11/18 10:32:35;;;;;;;;;;;;;;;6.69;71.81;98861.72;5011575;28;19926;-74
2023/11/18 10:35:23;;;;;;;;;;;;;;;6.70;71.87;98856.06;5010435;28;19971;-74
2023/11/18 10:38:16;;;;;;;;;;;;;;;6.82;71.07;98851.28;5008570;28;20323;-74
2023/11/18 10:41:05;;;;;;;;;;;;;;;6.95;70.87;98849.16;4996865;28;19932;-74
2023/11/18 10:44:05;;;;;;;;;;;;;;;7.12;70.67;98857.84;5010235;28;19979;-74
2023/11/18 10:46:58;;;;;;;;;;;;;;;7.40;69.60;98856.56;5009524;28;19932;-74
2023/11/18 10:49:47;;;;;;;;;;;;;;;7.49;69.16;98859.56;4997827;28;19926;-74
2023/11/18 10:52:37;;;;;;;;;;;;;;;7.59;68.50;98856.88;5007705;28;19937;-79
2023/11/18 10:55:33;;;;;;;;;;;;;;;7.68;68.25;98855.28;4995000;28;19968;-74
2023/11/18 10:58:21;;;;;;;;;;;;;;;7.80;67.75;98861.22;5009636;28;20383;-74
2023/11/18 11:01:12;;;;;;;;;;;;;;;7.53;68.34;98858.78;5011886;28;20012;-74
2023/11/18 11:04:04;;;;;;;;;;;;;;;7.26;69.58;98856.28;5006768;28;19933;-74
2023/11/18 11:06:56;;;;;;;;;;;;;;;7.34;69.36;98847.63;5005520;28;19932;-74
2023/11/18 11:09:45;;;;;;;;;;;;;;;7.32;69.52;98841.69;5006367;28;19980;-74
2023/11/18 11:12:38;;;;;;;;;;;;;;;7.20;69.84;98843.84;5004962;28;19940;-73
2023/11/18 11:15:28;;;;;;;;;;;;;;;7.53;68.97;98839.03;5007742;28;20016;-74
2023/11/18 11:18:23;;;;;;;;;;;;;;;7.72;68.46;98837.41;5006487;28;19984;-74
2023/11/18 11:21:15;;;;;;;;;;;;;;;7.84;68.31;98834.47;5004573;28;19937;-74
2023/11/18 11:24:05;;;;;;;;;;;;;;;8.11;67.58;98842.28;5007840;28;19932;-74
2023/11/18 11:26:56;;;;;;;;;;;;;;;8.29;65.82;98839.00;5006869;28;20063;-74
2023/11/18 11:29:50;;;;;;;;;;;;;;;8.42;65.58;98834.97;5009996;28;19948;-74
2023/11/18 11:32:41;;;;;;;;;;;;;;;8.47;65.34;98831.41;5009444;28;19933;-75
2023/11/18 11:35:32;;;;;;;;;;;;;;;8.44;65.31;98842.81;5004244;28;19971;-74
2023/11/18 11:38:22;;;;;;;;;;;;;;;8.16;65.60;98834.16;5007237;28;19926;-74
2023/11/18 11:41:14;;;;;;;;;;;;;;;8.23;65.30;98831.97;5010569;28;20731;-74
2023/11/18 11:44:06;;;;;;;;;;;;;;;8.31;64.64;98820.63;5005897;28;19933;-73
2023/11/18 11:46:56;;;;;;;;;;;;;;;8.38;64.59;98821.16;4993211;28;20041;-74
2023/11/18 11:49:47;;;;;;;;;;;;;;;8.48;64.66;98817.63;5007639;28;19929;-74
2023/11/18 11:52:37;;;;;;;;;;;;;;;8.28;64.56;98818.44;4993145;28;20051;-74
2023/11/18 11:55:28;;;;;;;;;;;;;;;8.45;64.70;98814.63;5007083;28;19945;-74
2023/11/18 11:58:31;;;;;;;;;;;;;;;8.55;64.36;98801.06;5007300;28;19953;-76
2023/11/18 12:01:33;;;;;;;;;;;;;;;8.56;63.80;98799.97;4997166;28;20390;-74
2023/11/18 12:04:27;;;;;;;;;;;;;;;8.52;63.69;98790.78;5007951;28;20393;-74
2023/11/18 12:07:16;;;;;;;;;;;;;;;8.57;63.42;98785.34;5007289;28;19925;-73
2023/11/18 12:10:13;;;;;;;;;;;;;;;8.50;63.57;98782.94;5006726;28;19925;-73
2023/11/18 12:13:15;;;;;;;;;;;;;;;8.45;63.84;98779.44;5005570;28;19925;-74
2023/11/18 12:16:04;;;;;;;;;;;;;;;8.62;63.49;98766.38;5009563;28;19932;-72
2023/11/18 12:19:10;;;;;;;;;;;;;;;8.72;63.22;98760.91;5010234;28;19936;-73
2023/11/18 12:22:01;;;;;;;;;;;;;;;8.80;62.57;98738.66;5004680;28;19930;-73
2023/11/18 12:25:08;;;;;;;;;;;;;;;8.65;62.72;98728.72;4998848;28;20050;-73
2023/11/18 12:28:07;;;;;;;;;;;;;;;8.70;62.85;98722.47;4992812;28;19944;-73
2023/11/18 12:31:04;;;;;;;;;;;;;;;8.83;62.61;98715.59;5002166;28;20030;-73
2023/11/18 12:34:05;;;;;;;;;;;;;;;8.88;62.06;98708.25;4997502;28;19926;-74
2023/11/18 12:37:07;;;;;;;;;;;;;;;8.96;61.01;98714.19;4992428;28;19940;-74
2023/11/18 12:40:13;;;;;;;;;;;;;;;9.16;61.71;98698.59;5005853;28;20020;-74
2023/11/18 12:43:04;;;;;;;;;;;;;;;9.22;61.31;98680.38;5000967;28;19969;-74
2023/11/18 12:46:07;;;;;;;;;;;;;;;9.23;61.15;98673.88;4989859;28;20039;-73
2023/11/18 12:48:55;;;;;;;;;;;;;;;9.08;60.23;98685.63;5005232;28;20383;-73
2023/11/18 12:51:44;;;;;;;;;;;;;;;9.12;59.51;98678.56;5006128;28;19949;-74
2023/11/18 12:54:37;;;;;;;;;;;;;;;9.15;59.74;98693.44;4992361;28;19929;-73
2023/11/18 12:57:30;;;;;;;;;;;;;;;9.17;59.47;98691.28;5002186;28;19926;-74
2023/11/18 13:00:26;;;;;;;;;;;;;;;9.15;58.25;98690.72;4999298;28;20864;-73
2023/11/18 13:03:15;;;;;;;;;;;;;;;9.22;58.63;98687.72;5010390;28;19936;-73
2023/11/18 13:06:05;;;;;;;;;;;;;;;8.95;58.28;98680.03;5006669;28;19932;-73
2023/11/18 13:08:54;;;;;;;;;;;;;;;9.21;58.40;98678.75;5005135;28;19948;-74
2023/11/18 13:11:45;;;;;;;;;;;;;;;9.22;59.57;98679.56;5009802;28;20283;-73
2023/11/18 13:14:36;;;;;;;;;;;;;;;9.34;58.30;98682.72;4993256;28;20252;-74
2023/11/18 13:17:28;;;;;;;;;;;;;;;9.19;57.90;98672.81;5011657;28;19983;-74
2023/11/18 13:20:17;;;;;;;;;;;;;;;9.36;58.40;98666.97;5013212;28;19926;-73
2023/11/18 13:23:08;;;;;;;;;;;;;;;9.41;57.89;98667.72;5013584;28;20295;-73
2023/11/18 13:26:00;;;;;;;;;;;;;;;9.38;57.31;98673.75;5008066;28;19932;-74
2023/11/18 13:28:49;;;;;;;;;;;;;;;9.38;57.58;98683.78;5010244;28;19951;-74
2023/11/18 13:31:38;;;;;;;;;;;;;;;9.12;58.58;98667.72;4997501;28;19984;-74
2023/11/18 13:34:27;;;;;;;;;;;;;;;9.19;58.61;98678.22;5011159;28;19934;-73
2023/11/18 13:37:16;;;;;;;;;;;;;;;8.86;59.15;98680.63;5005810;28;20318;-72
2023/11/18 13:40:05;;;;;;;;;;;;;;;9.09;59.54;98687.25;5011542;28;20011;-74
2023/11/18 13:43:05;;;;;;;;;;;;;;;9.12;60.16;98675.03;5011596;28;20303;-73
2023/11/18 13:45:56;;;;;;;;;;;;;;;9.17;59.79;98675.81;5010846;28;19941;-73
2023/11/18 13:48:49;;;;;;;;;;;;;;;9.04;60.19;98676.44;5012072;28;19934;-73
2023/11/18 13:51:37;;;;;;;;;;;;;;;9.21;59.74;98672.50;5009242;28;19929;-74
2023/11/18 13:54:26;;;;;;;;;;;;;;;9.22;59.48;98668.72;5011606;28;20011;-74
2023/11/18 13:57:17;;;;;;;;;;;;;;;9.05;60.81;98663.69;5012670;28;19931;-74
2023/11/18 14:00:06;;;;;;;;;;;;;;;8.95;60.53;98667.31;5011514;28;20023;-74
2023/11/18 14:02:57;;;;;;;;;;;;;;;8.91;61.26;98650.00;5008620;28;20008;-74
2023/11/18 14:05:46;;;;;;;;;;;;;;;8.88;60.73;98643.22;5010907;28;20019;-74
2023/11/18 14:08:35;;;;;;;;;;;;;;;8.99;61.23;98630.41;5011314;28;20045;-73
2023/11/18 14:11:24;;;;;;;;;;;;;;;9.04;60.92;98629.56;5013394;28;19951;-74
2023/11/18 14:14:12;;;;;;;;;;;;;;;8.96;61.24;98630.19;5012652;28;19932;-73
2023/11/18 14:17:00;;;;;;;;;;;;;;;9.00;60.99;98640.16;5014275;28;19930;-74
2023/11/18 14:19:52;;;;;;;;;;;;;;;8.76;61.76;98640.06;5006266;28;20017;-73
2023/11/18 14:22:42;;;;;;;;;;;;;;;8.68;62.85;98645.25;5012003;28;19933;-74
2023/11/18 14:25:31;;;;;;;;;;;;;;;8.81;62.26;98648.16;5010302;28;19936;-73
2023/11/18 14:28:25;;;;;;;;;;;;;;;8.87;62.04;98651.63;5013749;28;19929;-74
2023/11/18 14:31:13;;;;;;;;;;;;;;;8.96;61.75;98635.59;5002103;28;19930;-73
2023/11/18 14:34:04;;;;;;;;;;;;;;;8.89;61.95;98636.72;5005737;28;20615;-73
2023/11/18 14:36:56;;;;;;;;;;;;;;;8.98;62.10;98636.09;5013827;28;19934;-74
2023/11/18 14:39:45;;;;;;;;;;;;;;;9.03;62.12;98636.06;5009571;28;19929;-73
2023/11/18 14:42:33;;;;;;;;;;;;;;;9.01;62.57;98624.72;5005802;28;19989;-74
2023/11/18 14:45:21;;;;;;;;;;;;;;;9.02;62.25;98620.91;5010156;28;19929;-73
2023/11/18 14:48:09;;;;;;;;;;;;;;;8.97;62.30;98612.81;4991691;28;19926;-73
2023/11/18 14:50:57;;;;;;;;;;;;;;;8.97;62.58;98612.81;5006700;28;20314;-74
2023/11/18 14:53:47;;;;;;;;;;;;;;;8.98;62.40;98606.28;5011001;28;19941;-74
2023/11/18 14:56:36;;;;;;;;;;;;;;;8.95;62.72;98604.16;5009956;28;19975;-74
2023/11/18 14:59:24;;;;;;;;;;;;;;;8.88;63.07;98610.69;5012677;28;20298;-73